sensor_id;sensor_type;location;lat;lon;timestamp;temperature;humidity
29571;DHT22;16814;52.118;11.436;2023-04-25T00:01:33;7.50;99.90
29571;DHT22;16814;52.118;11.436;2023-04-25T00:04:07;7.50;99.90
29571;DHT22;16814;52.118;11.436;2023-04-25T00:06:35;7.50;99.90
29571;DHT22;16814;52.118;11.436;2023-04-25T00:09:04;7.50;99.90
29571;DHT22;16814;52.118;11.436;2023-04-25T00:11:34;7.50;99.90
29571;DHT22;16814;52.118;11.436;2023-04-25T00:14:00;7.50;99.90
29571;DHT22;16814;52.118;11.436;2023-04-25T00:16:30;7.50;99.90
29571;DHT22;16814;52.118;11.436;2023-04-25T00:19:01;7.50;99.90
29571;DHT22;16814;52.118;11.436;2023-04-25T00:21:30;7.50;99.90
29571;DHT22;16814;52.118;11.436;2023-04-25T00:23:59;7.50;99.90
29571;DHT22;16814;52.118;11.436;2023-04-25T00:26:25;7.50;99.90
29571;DHT22;16814;52.118;11.436;2023-04-25T00:28:52;7.50;99.90
29571;DHT22;16814;52.118;11.436;2023-04-25T00:31:18;7.50;99.90
29571;DHT22;16814;52.118;11.436;2023-04-25T00:33:45;7.50;99.90
29571;DHT22;16814;52.118;11.436;2023-04-25T00:36:12;7.50;99.90
29571;DHT22;16814;52.118;11.436;2023-04-25T00:38:39;7.50;99.90
29571;DHT22;16814;52.118;11.436;2023-04-25T00:41:07;7.60;99.90
29571;DHT22;16814;52.118;11.436;2023-04-25T00:43:34;7.60;99.90
29571;DHT22;16814;52.118;11.436;2023-04-25T00:46:03;7.60;99.90
29571;DHT22;16814;52.118;11.436;2023-04-25T00:48:30;7.60;99.90
29571;DHT22;16814;52.118;11.436;2023-04-25T00:50:59;7.60;99.90
29571;DHT22;16814;52.118;11.436;2023-04-25T00:53:27;7.60;99.90
29571;DHT22;16814;52.118;11.436;2023-04-25T00:55:54;7.60;99.90
29571;DHT22;16814;52.118;11.436;2023-04-25T00:58:22;7.60;99.90
29571;DHT22;16814;52.118;11.436;2023-04-25T01:00:54;7.60;99.90
29571;DHT22;16814;52.118;11.436;2023-04-25T01:03:27;7.60;99.90
29571;DHT22;16814;52.118;11.436;2023-04-25T01:05:57;7.70;99.90
29571;DHT22;16814;52.118;11.436;2023-04-25T01:08:24;7.70;99.90
29571;DHT22;16814;52.118;11.436;2023-04-25T01:10:52;7.70;99.90
29571;DHT22;16814;52.118;11.436;2023-04-25T01:13:17;7.70;99.90
29571;DHT22;16814;52.118;11.436;2023-04-25T01:15:46;7.70;99.90
29571;DHT22;16814;52.118;11.436;2023-04-25T01:18:15;7.60;99.90
29571;DHT22;16814;52.118;11.436;2023-04-25T01:20:44;7.60;99.90
29571;DHT22;16814;52.118;11.436;2023-04-25T01:23:11;7.60;99.90
29571;DHT22;16814;52.118;11.436;2023-04-25T01:25:40;7.60;99.90
29571;DHT22;16814;52.118;11.436;2023-04-25T01:28:06;7.60;99.90
29571;DHT22;16814;52.118;11.436;2023-04-25T01:30:34;7.60;99.90
29571;DHT22;16814;52.118;11.436;2023-04-25T01:33:04;7.60;99.90
29571;DHT22;16814;52.118;11.436;2023-04-25T01:35:31;7.60;99.90
29571;DHT22;16814;52.118;11.436;2023-04-25T01:37:58;7.60;99.90
29571;DHT22;16814;52.118;11.436;2023-04-25T01:40:27;7.50;99.90
29571;DHT22;16814;52.118;11.436;2023-04-25T01:42:55;7.50;99.90
29571;DHT22;16814;52.118;11.436;2023-04-25T01:45:22;7.50;99.90
29571;DHT22;16814;52.118;11.436;2023-04-25T01:47:48;7.40;99.90
29571;DHT22;16814;52.118;11.436;2023-04-25T01:50:18;7.40;99.90
29571;DHT22;16814;52.118;11.436;2023-04-25T01:52:44;7.40;99.90
29571;DHT22;16814;52.118;11.436;2023-04-25T01:55:13;7.40;99.90
29571;DHT22;16814;52.118;11.436;2023-04-25T01:57:50;7.40;99.90
29571;DHT22;16814;52.118;11.436;2023-04-25T02:00:17;7.40;99.90
29571;DHT22;16814;52.118;11.436;2023-04-25T02:02:43;7.40;99.90
29571;DHT22;16814;52.118;11.436;2023-04-25T02:05:09;7.40;99.90
29571;DHT22;16814;52.118;11.436;2023-04-25T02:07:45;7.40;99.90
29571;DHT22;16814;52.118;11.436;2023-04-25T02:10:11;7.40;99.90
29571;DHT22;16814;52.118;11.436;2023-04-25T02:12:39;7.40;99.90
29571;DHT22;16814;52.118;11.436;2023-04-25T02:15:07;7.50;99.90
29571;DHT22;16814;52.118;11.436;2023-04-25T02:17:33;7.50;99.90
29571;DHT22;16814;52.118;11.436;2023-04-25T02:20:00;7.50;99.90
29571;DHT22;16814;52.118;11.436;2023-04-25T02:22:27;7.50;99.90
29571;DHT22;16814;52.118;11.436;2023-04-25T02:24:59;7.50;99.90
29571;DHT22;16814;52.118;11.436;2023-04-25T02:27:24;7.50;99.90
29571;DHT22;16814;52.118;11.436;2023-04-25T02:29:52;7.50;99.90
29571;DHT22;16814;52.118;11.436;2023-04-25T02:32:21;7.50;99.90
29571;DHT22;16814;52.118;11.436;2023-04-25T02:34:49;7.60;99.90
29571;DHT22;16814;52.118;11.436;2023-04-25T02:37:17;7.50;99.90
29571;DHT22;16814;52.118;11.436;2023-04-25T02:39:45;7.50;99.90
29571;DHT22;16814;52.118;11.436;2023-04-25T02:42:13;7.50;99.90
29571;DHT22;16814;52.118;11.436;2023-04-25T02:44:40;7.40;99.90
29571;DHT22;16814;52.118;11.436;2023-04-25T02:47:07;7.40;99.90
29571;DHT22;16814;52.118;11.436;2023-04-25T02:49:34;7.40;99.90
29571;DHT22;16814;52.118;11.436;2023-04-25T02:52:01;7.40;99.90
29571;DHT22;16814;52.118;11.436;2023-04-25T02:54:26;7.30;99.90
29571;DHT22;16814;52.118;11.436;2023-04-25T02:56:53;7.30;99.90
29571;DHT22;16814;52.118;11.436;2023-04-25T02:59:20;7.30;99.90
29571;DHT22;16814;52.118;11.436;2023-04-25T03:01:47;7.20;99.90
29571;DHT22;16814;52.118;11.436;2023-04-25T03:04:13;7.10;99.90
29571;DHT22;16814;52.118;11.436;2023-04-25T03:06:38;7.00;99.90
29571;DHT22;16814;52.118;11.436;2023-04-25T03:09:06;7.00;99.90
29571;DHT22;16814;52.118;11.436;2023-04-25T03:11:33;7.00;99.90
29571;DHT22;16814;52.118;11.436;2023-04-25T03:13:59;7.00;99.90
29571;DHT22;16814;52.118;11.436;2023-04-25T03:16:26;7.00;99.90
29571;DHT22;16814;52.118;11.436;2023-04-25T03:18:54;7.00;99.90
29571;DHT22;16814;52.118;11.436;2023-04-25T03:21:20;6.90;99.90
29571;DHT22;16814;52.118;11.436;2023-04-25T03:23:47;6.80;99.90
29571;DHT22;16814;52.118;11.436;2023-04-25T03:26:12;6.80;99.90
29571;DHT22;16814;52.118;11.436;2023-04-25T03:28:40;6.80;99.90
29571;DHT22;16814;52.118;11.436;2023-04-25T03:31:07;6.70;99.90
29571;DHT22;16814;52.118;11.436;2023-04-25T03:33:32;6.80;99.90
29571;DHT22;16814;52.118;11.436;2023-04-25T03:35:59;6.70;99.90
29571;DHT22;16814;52.118;11.436;2023-04-25T03:38:26;6.80;99.90
29571;DHT22;16814;52.118;11.436;2023-04-25T03:40:55;6.80;99.90
29571;DHT22;16814;52.118;11.436;2023-04-25T03:43:23;6.80;99.90
29571;DHT22;16814;52.118;11.436;2023-04-25T03:45:51;6.80;99.90
29571;DHT22;16814;52.118;11.436;2023-04-25T03:48:19;6.70;99.90
29571;DHT22;16814;52.118;11.436;2023-04-25T03:50:49;6.80;99.90
29571;DHT22;16814;52.118;11.436;2023-04-25T03:53:19;7.00;99.90
29571;DHT22;16814;52.118;11.436;2023-04-25T03:55:46;7.10;99.90
29571;DHT22;16814;52.118;11.436;2023-04-25T03:58:12;7.30;99.90
29571;DHT22;16814;52.118;11.436;2023-04-25T04:00:38;7.30;99.90
29571;DHT22;16814;52.118;11.436;2023-04-25T04:03:05;7.30;99.90
29571;DHT22;16814;52.118;11.436;2023-04-25T04:05:32;7.30;99.90
29571;DHT22;16814;52.118;11.436;2023-04-25T04:08:00;7.30;99.90
29571;DHT22;16814;52.118;11.436;2023-04-25T04:10:27;7.30;99.90
29571;DHT22;16814;52.118;11.436;2023-04-25T04:12:56;7.30;99.90
29571;DHT22;16814;52.118;11.436;2023-04-25T04:15:25;7.30;99.90
29571;DHT22;16814;52.118;11.436;2023-04-25T04:17:51;7.30;99.90
29571;DHT22;16814;52.118;11.436;2023-04-25T04:20:18;7.30;99.90
29571;DHT22;16814;52.118;11.436;2023-04-25T04:22:44;7.30;99.90
29571;DHT22;16814;52.118;11.436;2023-04-25T04:25:10;7.30;99.90
29571;DHT22;16814;52.118;11.436;2023-04-25T04:27:39;7.30;99.90
29571;DHT22;16814;52.118;11.436;2023-04-25T04:30:06;7.30;99.90
29571;DHT22;16814;52.118;11.436;2023-04-25T04:32:32;7.20;99.90
29571;DHT22;16814;52.118;11.436;2023-04-25T04:35:02;7.20;99.90
29571;DHT22;16814;52.118;11.436;2023-04-25T04:37:31;7.20;99.90
29571;DHT22;16814;52.118;11.436;2023-04-25T04:39:57;7.30;99.90
29571;DHT22;16814;52.118;11.436;2023-04-25T04:42:24;7.30;99.90
29571;DHT22;16814;52.118;11.436;2023-04-25T04:45:01;7.30;99.90
29571;DHT22;16814;52.118;11.436;2023-04-25T04:47:28;7.30;99.90
29571;DHT22;16814;52.118;11.436;2023-04-25T04:49:58;7.40;99.90
29571;DHT22;16814;52.118;11.436;2023-04-25T04:52:26;7.40;99.90
29571;DHT22;16814;52.118;11.436;2023-04-25T04:54:52;7.40;99.90
29571;DHT22;16814;52.118;11.436;2023-04-25T04:57:19;7.30;99.90
29571;DHT22;16814;52.118;11.436;2023-04-25T04:59:55;7.40;99.90
29571;DHT22;16814;52.118;11.436;2023-04-25T05:02:22;7.40;99.90
29571;DHT22;16814;52.118;11.436;2023-04-25T05:04:52;7.40;99.90
29571;DHT22;16814;52.118;11.436;2023-04-25T05:07:19;7.40;99.90
29571;DHT22;16814;52.118;11.436;2023-04-25T05:09:47;7.40;99.90
29571;DHT22;16814;52.118;11.436;2023-04-25T05:12:15;7.30;99.90
29571;DHT22;16814;52.118;11.436;2023-04-25T05:14:43;7.30;99.90
29571;DHT22;16814;52.118;11.436;2023-04-25T05:17:10;7.30;99.90
29571;DHT22;16814;52.118;11.436;2023-04-25T05:19:37;7.30;99.90
29571;DHT22;16814;52.118;11.436;2023-04-25T05:22:06;7.30;99.90
29571;DHT22;16814;52.118;11.436;2023-04-25T05:24:34;7.30;99.90
29571;DHT22;16814;52.118;11.436;2023-04-25T05:27:01;7.40;99.90
29571;DHT22;16814;52.118;11.436;2023-04-25T05:29:29;7.40;99.90
29571;DHT22;16814;52.118;11.436;2023-04-25T05:31:55;7.40;99.90
29571;DHT22;16814;52.118;11.436;2023-04-25T05:34:21;7.30;99.90
29571;DHT22;16814;52.118;11.436;2023-04-25T05:36:49;7.30;99.90
29571;DHT22;16814;52.118;11.436;2023-04-25T05:39:18;7.30;99.90
29571;DHT22;16814;52.118;11.436;2023-04-25T05:41:45;7.40;99.90
29571;DHT22;16814;52.118;11.436;2023-04-25T05:44:12;7.40;99.90
29571;DHT22;16814;52.118;11.436;2023-04-25T05:46:39;7.40;99.90
29571;DHT22;16814;52.118;11.436;2023-04-25T05:49:07;7.50;99.90
29571;DHT22;16814;52.118;11.436;2023-04-25T05:51:36;7.40;99.90
29571;DHT22;16814;52.118;11.436;2023-04-25T05:54:02;7.50;99.90
29571;DHT22;16814;52.118;11.436;2023-04-25T05:56:29;7.50;99.90
29571;DHT22;16814;52.118;11.436;2023-04-25T05:58:57;7.40;99.90
29571;DHT22;16814;52.118;11.436;2023-04-25T06:01:23;7.40;99.90
29571;DHT22;16814;52.118;11.436;2023-04-25T06:03:50;7.50;99.90
29571;DHT22;16814;52.118;11.436;2023-04-25T06:06:20;7.60;99.90
29571;DHT22;16814;52.118;11.436;2023-04-25T06:08:47;7.50;99.90
29571;DHT22;16814;52.118;11.436;2023-04-25T06:11:13;7.40;99.90
29571;DHT22;16814;52.118;11.436;2023-04-25T06:13:40;7.50;99.90
29571;DHT22;16814;52.118;11.436;2023-04-25T06:16:07;7.60;99.90
29571;DHT22;16814;52.118;11.436;2023-04-25T06:18:39;7.70;99.90
29571;DHT22;16814;52.118;11.436;2023-04-25T06:21:08;7.80;99.90
29571;DHT22;16814;52.118;11.436;2023-04-25T06:23:34;7.90;99.90
29571;DHT22;16814;52.118;11.436;2023-04-25T06:26:01;8.00;99.90
29571;DHT22;16814;52.118;11.436;2023-04-25T06:28:32;8.00;99.90
29571;DHT22;16814;52.118;11.436;2023-04-25T06:30:59;8.10;99.90
29571;DHT22;16814;52.118;11.436;2023-04-25T06:33:32;8.00;99.90
29571;DHT22;16814;52.118;11.436;2023-04-25T06:36:01;8.00;99.90
29571;DHT22;16814;52.118;11.436;2023-04-25T06:38:26;8.00;99.90
29571;DHT22;16814;52.118;11.436;2023-04-25T06:40:54;8.00;99.90
29571;DHT22;16814;52.118;11.436;2023-04-25T06:43:23;8.10;99.90
29571;DHT22;16814;52.118;11.436;2023-04-25T06:45:51;8.10;99.90
29571;DHT22;16814;52.118;11.436;2023-04-25T06:48:18;8.20;99.90
29571;DHT22;16814;52.118;11.436;2023-04-25T06:50:45;8.20;99.90
29571;DHT22;16814;52.118;11.436;2023-04-25T06:53:12;8.30;99.90
29571;DHT22;16814;52.118;11.436;2023-04-25T06:55:39;8.20;99.90
29571;DHT22;16814;52.118;11.436;2023-04-25T06:58:09;8.40;99.90
29571;DHT22;16814;52.118;11.436;2023-04-25T07:00:37;8.80;99.90
29571;DHT22;16814;52.118;11.436;2023-04-25T07:03:06;9.10;99.90
29571;DHT22;16814;52.118;11.436;2023-04-25T07:05:33;9.30;99.90
29571;DHT22;16814;52.118;11.436;2023-04-25T07:07:59;9.60;99.90
29571;DHT22;16814;52.118;11.436;2023-04-25T07:10:26;10.20;99.90
29571;DHT22;16814;52.118;11.436;2023-04-25T07:12:53;10.90;99.90
29571;DHT22;16814;52.118;11.436;2023-04-25T07:15:21;11.50;99.90
29571;DHT22;16814;52.118;11.436;2023-04-25T07:17:56;12.00;99.90
29571;DHT22;16814;52.118;11.436;2023-04-25T07:20:23;12.10;99.90
29571;DHT22;16814;52.118;11.436;2023-04-25T07:22:50;12.10;99.90
29571;DHT22;16814;52.118;11.436;2023-04-25T07:25:18;11.90;99.90
29571;DHT22;16814;52.118;11.436;2023-04-25T07:27:46;11.70;99.90
29571;DHT22;16814;52.118;11.436;2023-04-25T07:30:13;11.50;99.90
29571;DHT22;16814;52.118;11.436;2023-04-25T07:32:40;11.40;99.90
29571;DHT22;16814;52.118;11.436;2023-04-25T07:35:08;11.50;99.90
29571;DHT22;16814;52.118;11.436;2023-04-25T07:37:35;11.80;99.90
29571;DHT22;16814;52.118;11.436;2023-04-25T07:40:03;12.10;99.90
29571;DHT22;16814;52.118;11.436;2023-04-25T07:42:31;12.30;99.90
29571;DHT22;16814;52.118;11.436;2023-04-25T07:45:00;12.30;99.90
29571;DHT22;16814;52.118;11.436;2023-04-25T07:47:28;12.30;99.90
29571;DHT22;16814;52.118;11.436;2023-04-25T07:49:55;12.30;99.90
29571;DHT22;16814;52.118;11.436;2023-04-25T07:52:26;12.40;99.90
29571;DHT22;16814;52.118;11.436;2023-04-25T07:54:51;12.50;99.90
29571;DHT22;16814;52.118;11.436;2023-04-25T07:57:19;12.50;99.90
29571;DHT22;16814;52.118;11.436;2023-04-25T07:59:48;12.10;99.90
29571;DHT22;16814;52.118;11.436;2023-04-25T08:02:28;12.00;99.90
29571;DHT22;16814;52.118;11.436;2023-04-25T08:04:53;12.20;99.90
29571;DHT22;16814;52.118;11.436;2023-04-25T08:07:19;12.50;99.90
29571;DHT22;16814;52.118;11.436;2023-04-25T08:09:44;12.40;99.90
29571;DHT22;16814;52.118;11.436;2023-04-25T08:12:10;12.40;99.90
29571;DHT22;16814;52.118;11.436;2023-04-25T08:14:36;12.60;99.90
29571;DHT22;16814;52.118;11.436;2023-04-25T08:17:03;13.20;99.90
29571;DHT22;16814;52.118;11.436;2023-04-25T08:19:29;13.60;99.90
29571;DHT22;16814;52.118;11.436;2023-04-25T08:21:55;13.80;99.90
29571;DHT22;16814;52.118;11.436;2023-04-25T08:24:22;14.00;99.90
29571;DHT22;16814;52.118;11.436;2023-04-25T08:26:48;13.90;99.90
29571;DHT22;16814;52.118;11.436;2023-04-25T08:29:14;13.60;99.90
29571;DHT22;16814;52.118;11.436;2023-04-25T08:31:39;13.30;99.90
29571;DHT22;16814;52.118;11.436;2023-04-25T08:34:05;13.00;99.90
29571;DHT22;16814;52.118;11.436;2023-04-25T08:36:31;12.90;99.90
29571;DHT22;16814;52.118;11.436;2023-04-25T08:38:57;12.60;99.90
29571;DHT22;16814;52.118;11.436;2023-04-25T08:41:23;12.70;99.90
29571;DHT22;16814;52.118;11.436;2023-04-25T08:43:49;13.10;99.90
29571;DHT22;16814;52.118;11.436;2023-04-25T08:46:18;13.20;99.90
29571;DHT22;16814;52.118;11.436;2023-04-25T08:48:45;13.20;99.90
29571;DHT22;16814;52.118;11.436;2023-04-25T08:51:20;13.20;99.90
29571;DHT22;16814;52.118;11.436;2023-04-25T08:53:49;13.70;99.90
29571;DHT22;16814;52.118;11.436;2023-04-25T08:56:17;13.70;99.90
29571;DHT22;16814;52.118;11.436;2023-04-25T08:58:44;13.90;99.90
29571;DHT22;16814;52.118;11.436;2023-04-25T09:01:11;14.10;99.90
29571;DHT22;16814;52.118;11.436;2023-04-25T09:03:38;14.10;99.90
29571;DHT22;16814;52.118;11.436;2023-04-25T09:06:03;14.30;99.90
29571;DHT22;16814;52.118;11.436;2023-04-25T09:08:29;14.60;99.90
29571;DHT22;16814;52.118;11.436;2023-04-25T09:10:55;14.80;99.90
29571;DHT22;16814;52.118;11.436;2023-04-25T09:13:26;15.00;99.90
29571;DHT22;16814;52.118;11.436;2023-04-25T09:15:54;15.00;98.90
29571;DHT22;16814;52.118;11.436;2023-04-25T09:18:30;14.80;99.10
29571;DHT22;16814;52.118;11.436;2023-04-25T09:21:05;14.30;96.60
29571;DHT22;16814;52.118;11.436;2023-04-25T09:23:31;13.90;97.00
29571;DHT22;16814;52.118;11.436;2023-04-25T09:26:03;13.40;97.80
29571;DHT22;16814;52.118;11.436;2023-04-25T09:28:31;13.00;98.40
29571;DHT22;16814;52.118;11.436;2023-04-25T09:30:57;12.70;99.30
29571;DHT22;16814;52.118;11.436;2023-04-25T09:33:28;12.40;99.60
29571;DHT22;16814;52.118;11.436;2023-04-25T09:36:10;12.10;99.70
29571;DHT22;16814;52.118;11.436;2023-04-25T09:38:43;12.00;99.90
29571;DHT22;16814;52.118;11.436;2023-04-25T09:41:10;12.00;99.90
29571;DHT22;16814;52.118;11.436;2023-04-25T09:43:37;12.20;99.90
29571;DHT22;16814;52.118;11.436;2023-04-25T09:46:04;12.60;99.90
29571;DHT22;16814;52.118;11.436;2023-04-25T09:48:32;12.90;99.50
29571;DHT22;16814;52.118;11.436;2023-04-25T09:53:40;13.30;99.90
29571;DHT22;16814;52.118;11.436;2023-04-25T09:56:08;13.10;99.00
29571;DHT22;16814;52.118;11.436;2023-04-25T09:58:36;12.80;98.30
29571;DHT22;16814;52.118;11.436;2023-04-25T10:01:03;12.50;98.30
29571;DHT22;16814;52.118;11.436;2023-04-25T10:03:31;12.20;97.80
29571;DHT22;16814;52.118;11.436;2023-04-25T10:06:01;11.80;98.40
29571;DHT22;16814;52.118;11.436;2023-04-25T10:08:32;11.60;99.70
29571;DHT22;16814;52.118;11.436;2023-04-25T10:11:00;11.40;99.80
29571;DHT22;16814;52.118;11.436;2023-04-25T10:13:28;11.20;99.90
29571;DHT22;16814;52.118;11.436;2023-04-25T10:15:54;11.20;99.90
29571;DHT22;16814;52.118;11.436;2023-04-25T10:18:20;11.10;99.90
29571;DHT22;16814;52.118;11.436;2023-04-25T10:20:46;11.00;99.90
29571;DHT22;16814;52.118;11.436;2023-04-25T10:23:13;10.80;99.90
29571;DHT22;16814;52.118;11.436;2023-04-25T10:25:40;10.70;99.90
29571;DHT22;16814;52.118;11.436;2023-04-25T10:28:06;10.50;99.90
29571;DHT22;16814;52.118;11.436;2023-04-25T10:30:32;10.50;99.90
29571;DHT22;16814;52.118;11.436;2023-04-25T10:32:59;10.50;99.90
29571;DHT22;16814;52.118;11.436;2023-04-25T10:35:28;10.60;99.90
29571;DHT22;16814;52.118;11.436;2023-04-25T10:38:14;10.70;99.90
29571;DHT22;16814;52.118;11.436;2023-04-25T10:40:39;10.80;99.90
29571;DHT22;16814;52.118;11.436;2023-04-25T10:46:13;11.30;99.90
29571;DHT22;16814;52.118;11.436;2023-04-25T10:48:47;11.90;99.90
29571;DHT22;16814;52.118;11.436;2023-04-25T10:56:21;11.30;99.90
29571;DHT22;16814;52.118;11.436;2023-04-25T10:58:48;11.00;99.90
29571;DHT22;16814;52.118;11.436;2023-04-25T11:01:15;10.90;99.90
29571;DHT22;16814;52.118;11.436;2023-04-25T11:03:44;10.80;99.90
29571;DHT22;16814;52.118;11.436;2023-04-25T11:06:27;10.80;99.90
29571;DHT22;16814;52.118;11.436;2023-04-25T11:08:54;10.90;99.90
29571;DHT22;16814;52.118;11.436;2023-04-25T11:11:20;11.10;99.90
29571;DHT22;16814;52.118;11.436;2023-04-25T11:13:49;11.20;99.90
29571;DHT22;16814;52.118;11.436;2023-04-25T11:16:16;11.50;99.90
29571;DHT22;16814;52.118;11.436;2023-04-25T11:18:42;11.50;99.90
29571;DHT22;16814;52.118;11.436;2023-04-25T11:21:08;11.50;99.90
29571;DHT22;16814;52.118;11.436;2023-04-25T11:23:34;11.40;99.90
29571;DHT22;16814;52.118;11.436;2023-04-25T11:26:00;11.30;99.90
29571;DHT22;16814;52.118;11.436;2023-04-25T11:28:27;11.30;99.40
29571;DHT22;16814;52.118;11.436;2023-04-25T11:30:52;11.30;99.90
29571;DHT22;16814;52.118;11.436;2023-04-25T11:33:23;11.40;99.90
29571;DHT22;16814;52.118;11.436;2023-04-25T11:35:49;11.50;99.60
29571;DHT22;16814;52.118;11.436;2023-04-25T11:38:15;11.40;99.80
29571;DHT22;16814;52.118;11.436;2023-04-25T11:40:40;11.30;99.50
29571;DHT22;16814;52.118;11.436;2023-04-25T11:43:06;11.30;99.90
29571;DHT22;16814;52.118;11.436;2023-04-25T11:45:32;11.20;99.50
29571;DHT22;16814;52.118;11.436;2023-04-25T11:47:58;11.10;99.90
29571;DHT22;16814;52.118;11.436;2023-04-25T11:50:23;11.20;99.90
29571;DHT22;16814;52.118;11.436;2023-04-25T11:52:49;11.30;99.90
29571;DHT22;16814;52.118;11.436;2023-04-25T11:55:20;11.70;99.90
29571;DHT22;16814;52.118;11.436;2023-04-25T11:57:48;12.10;99.90
29571;DHT22;16814;52.118;11.436;2023-04-25T12:00:21;12.40;99.90
29571;DHT22;16814;52.118;11.436;2023-04-25T12:02:51;12.50;99.30
29571;DHT22;16814;52.118;11.436;2023-04-25T12:05:17;12.40;97.90
29571;DHT22;16814;52.118;11.436;2023-04-25T12:07:43;12.40;97.20
29571;DHT22;16814;52.118;11.436;2023-04-25T12:10:14;12.30;96.30
29571;DHT22;16814;52.118;11.436;2023-04-25T12:12:45;12.10;97.50
29571;DHT22;16814;52.118;11.436;2023-04-25T12:15:13;11.80;97.70
29571;DHT22;16814;52.118;11.436;2023-04-25T12:17:51;11.70;98.40
29571;DHT22;16814;52.118;11.436;2023-04-25T12:20:23;11.60;98.20
29571;DHT22;16814;52.118;11.436;2023-04-25T12:22:50;11.50;99.70
29571;DHT22;16814;52.118;11.436;2023-04-25T12:25:35;11.30;97.50
29571;DHT22;16814;52.118;11.436;2023-04-25T12:28:22;11.20;97.90
29571;DHT22;16814;52.118;11.436;2023-04-25T12:30:53;11.20;99.10
29571;DHT22;16814;52.118;11.436;2023-04-25T12:33:18;11.10;98.80
29571;DHT22;16814;52.118;11.436;2023-04-25T12:35:44;11.00;99.20
29571;DHT22;16814;52.118;11.436;2023-04-25T12:38:10;11.20;99.90
29571;DHT22;16814;52.118;11.436;2023-04-25T12:40:35;11.40;99.90
29571;DHT22;16814;52.118;11.436;2023-04-25T12:43:01;11.50;98.80
29571;DHT22;16814;52.118;11.436;2023-04-25T12:45:26;11.60;98.40
29571;DHT22;16814;52.118;11.436;2023-04-25T12:47:52;11.70;98.60
29571;DHT22;16814;52.118;11.436;2023-04-25T12:50:17;11.70;99.40
29571;DHT22;16814;52.118;11.436;2023-04-25T12:52:43;11.60;98.90
29571;DHT22;16814;52.118;11.436;2023-04-25T12:55:08;11.50;98.60
29571;DHT22;16814;52.118;11.436;2023-04-25T12:57:34;11.40;99.00
29571;DHT22;16814;52.118;11.436;2023-04-25T13:00:00;11.30;99.90
29571;DHT22;16814;52.118;11.436;2023-04-25T13:02:25;11.20;99.90
29571;DHT22;16814;52.118;11.436;2023-04-25T13:04:51;11.10;99.90
29571;DHT22;16814;52.118;11.436;2023-04-25T13:07:17;11.10;99.90
29571;DHT22;16814;52.118;11.436;2023-04-25T13:09:42;11.20;99.80
29571;DHT22;16814;52.118;11.436;2023-04-25T13:12:08;11.30;99.90
29571;DHT22;16814;52.118;11.436;2023-04-25T13:14:33;11.20;99.90
29571;DHT22;16814;52.118;11.436;2023-04-25T13:16:59;11.20;99.90
29571;DHT22;16814;52.118;11.436;2023-04-25T13:19:25;11.10;99.70
29571;DHT22;16814;52.118;11.436;2023-04-25T13:21:51;11.10;99.90
29571;DHT22;16814;52.118;11.436;2023-04-25T13:24:16;11.20;99.90
29571;DHT22;16814;52.118;11.436;2023-04-25T13:26:43;11.40;99.90
29571;DHT22;16814;52.118;11.436;2023-04-25T13:29:08;11.50;99.90
29571;DHT22;16814;52.118;11.436;2023-04-25T13:31:34;11.70;99.90
29571;DHT22;16814;52.118;11.436;2023-04-25T13:34:00;11.70;99.80
29571;DHT22;16814;52.118;11.436;2023-04-25T13:36:25;11.70;99.90
29571;DHT22;16814;52.118;11.436;2023-04-25T13:38:51;11.80;98.50
29571;DHT22;16814;52.118;11.436;2023-04-25T13:41:16;11.90;99.90
29571;DHT22;16814;52.118;11.436;2023-04-25T13:43:44;12.20;99.90
29571;DHT22;16814;52.118;11.436;2023-04-25T13:46:10;12.20;98.00
29571;DHT22;16814;52.118;11.436;2023-04-25T13:48:38;12.10;97.50
29571;DHT22;16814;52.118;11.436;2023-04-25T13:51:03;12.00;98.40
29571;DHT22;16814;52.118;11.436;2023-04-25T13:53:29;11.90;98.10
29571;DHT22;16814;52.118;11.436;2023-04-25T13:55:54;11.90;98.50
29571;DHT22;16814;52.118;11.436;2023-04-25T13:58:20;11.90;98.40
29571;DHT22;16814;52.118;11.436;2023-04-25T14:00:46;11.90;97.60
29571;DHT22;16814;52.118;11.436;2023-04-25T14:03:12;11.80;97.60
29571;DHT22;16814;52.118;11.436;2023-04-25T14:05:37;11.70;97.40
29571;DHT22;16814;52.118;11.436;2023-04-25T14:08:05;11.60;96.40
29571;DHT22;16814;52.118;11.436;2023-04-25T14:10:31;11.60;97.50
29571;DHT22;16814;52.118;11.436;2023-04-25T14:12:56;11.70;98.40
29571;DHT22;16814;52.118;11.436;2023-04-25T14:15:22;11.70;97.60
29571;DHT22;16814;52.118;11.436;2023-04-25T14:17:47;11.70;98.90
29571;DHT22;16814;52.118;11.436;2023-04-25T14:20:13;11.80;97.50
29571;DHT22;16814;52.118;11.436;2023-04-25T14:22:39;11.90;98.80
29571;DHT22;16814;52.118;11.436;2023-04-25T14:25:08;12.00;99.90
29571;DHT22;16814;52.118;11.436;2023-04-25T14:27:34;12.00;97.40
29571;DHT22;16814;52.118;11.436;2023-04-25T14:29:59;12.00;97.90
29571;DHT22;16814;52.118;11.436;2023-04-25T14:32:25;12.00;98.30
29571;DHT22;16814;52.118;11.436;2023-04-25T14:34:51;12.00;98.80
29571;DHT22;16814;52.118;11.436;2023-04-25T14:37:16;12.10;99.70
29571;DHT22;16814;52.118;11.436;2023-04-25T14:39:42;12.10;98.80
29571;DHT22;16814;52.118;11.436;2023-04-25T14:42:07;12.00;99.00
29571;DHT22;16814;52.118;11.436;2023-04-25T14:44:33;12.10;98.70
29571;DHT22;16814;52.118;11.436;2023-04-25T14:46:58;11.90;97.30
29571;DHT22;16814;52.118;11.436;2023-04-25T14:49:24;11.70;97.60
29571;DHT22;16814;52.118;11.436;2023-04-25T14:51:50;11.50;98.20
29571;DHT22;16814;52.118;11.436;2023-04-25T14:54:16;11.40;98.20
29571;DHT22;16814;52.118;11.436;2023-04-25T14:56:42;11.30;97.60
29571;DHT22;16814;52.118;11.436;2023-04-25T14:59:07;11.20;98.30
29571;DHT22;16814;52.118;11.436;2023-04-25T15:01:33;11.10;98.40
29571;DHT22;16814;52.118;11.436;2023-04-25T15:03:59;11.20;99.40
29571;DHT22;16814;52.118;11.436;2023-04-25T15:06:25;11.40;99.20
29571;DHT22;16814;52.118;11.436;2023-04-25T15:08:52;11.50;99.00
29571;DHT22;16814;52.118;11.436;2023-04-25T15:11:18;11.40;97.60
29571;DHT22;16814;52.118;11.436;2023-04-25T15:13:45;11.30;97.70
29571;DHT22;16814;52.118;11.436;2023-04-25T15:16:11;11.20;98.50
29571;DHT22;16814;52.118;11.436;2023-04-25T15:18:36;11.10;97.90
29571;DHT22;16814;52.118;11.436;2023-04-25T15:21:02;10.90;98.60
29571;DHT22;16814;52.118;11.436;2023-04-25T15:23:27;11.00;99.00
29571;DHT22;16814;52.118;11.436;2023-04-25T15:25:53;11.10;99.60
29571;DHT22;16814;52.118;11.436;2023-04-25T15:28:19;11.00;99.60
29571;DHT22;16814;52.118;11.436;2023-04-25T15:30:46;11.10;99.40
29571;DHT22;16814;52.118;11.436;2023-04-25T15:33:12;11.20;99.80
29571;DHT22;16814;52.118;11.436;2023-04-25T15:35:38;11.30;98.30